sensor_id;sensor_type;location;lat;lon;timestamp;pressure;altitude;pressure_sealevel;temperature;humidity
63194;BME280;49289;51.670;5.624;2022-09-28T00:01:26;99756.66;;;14.83;66.00
63194;BME280;49289;51.670;5.624;2022-09-28T00:03:13;99752.05;;;14.85;65.71
63194;BME280;49289;51.670;5.624;2022-09-28T00:05:00;99754.88;;;14.89;65.77
63194;BME280;49289;51.670;5.624;2022-09-28T00:06:47;99752.00;;;15.03;65.63
63194;BME280;49289;51.670;5.624;2022-09-28T00:08:34;99754.98;;;14.60;66.53
63194;BME280;49289;51.670;5.624;2022-09-28T00:10:21;99747.67;;;14.76;66.04
63194;BME280;49289;51.670;5.624;2022-09-28T00:12:09;99745.41;;;14.69;66.07
63194;BME280;49289;51.670;5.624;2022-09-28T00:13:58;99747.73;;;14.82;65.93
63194;BME280;49289;51.670;5.624;2022-09-28T00:15:45;99748.77;;;14.88;65.80
63194;BME280;49289;51.670;5.624;2022-09-28T00:17:33;99742.28;;;14.70;66.10
63194;BME280;49289;51.670;5.624;2022-09-28T00:19:21;99745.94;;;14.37;66.92
63194;BME280;49289;51.670;5.624;2022-09-28T00:21:16;99741.49;;;14.21;67.00
63194;BME280;49289;51.670;5.624;2022-09-28T00:23:02;99721.20;;;14.10;67.01
63194;BME280;49289;51.670;5.624;2022-09-28T00:24:49;99740.77;;;14.31;67.19
63194;BME280;49289;51.670;5.624;2022-09-28T00:26:37;99741.36;;;14.31;66.98
63194;BME280;49289;51.670;5.624;2022-09-28T00:28:23;99744.43;;;14.42;66.92
63194;BME280;49289;51.670;5.624;2022-09-28T00:30:11;99735.14;;;13.78;68.21
63194;BME280;49289;51.670;5.624;2022-09-28T00:31:59;99720.56;;;14.14;67.37
63194;BME280;49289;51.670;5.624;2022-09-28T00:33:45;99734.80;;;13.92;67.95
63194;BME280;49289;51.670;5.624;2022-09-28T00:35:32;99732.56;;;14.17;67.87
63194;BME280;49289;51.670;5.624;2022-09-28T00:37:19;99736.44;;;14.43;67.04
63194;BME280;49289;51.670;5.624;2022-09-28T00:39:08;99735.96;;;14.54;66.25
63194;BME280;49289;51.670;5.624;2022-09-28T00:40:56;99730.20;;;14.30;66.59
63194;BME280;49289;51.670;5.624;2022-09-28T00:42:44;99734.77;;;14.49;66.39
63194;BME280;49289;51.670;5.624;2022-09-28T00:44:51;99713.94;;;14.67;66.34
63194;BME280;49289;51.670;5.624;2022-09-28T00:46:38;99722.53;;;14.59;66.31
63194;BME280;49289;51.670;5.624;2022-09-28T00:48:28;99725.33;;;14.57;66.01
63194;BME280;49289;51.670;5.624;2022-09-28T00:50:16;99721.14;;;14.72;66.27
63194;BME280;49289;51.670;5.624;2022-09-28T00:52:03;99730.12;;;14.67;66.00
63194;BME280;49289;51.670;5.624;2022-09-28T00:53:52;99723.91;;;14.65;66.58
63194;BME280;49289;51.670;5.624;2022-09-28T00:55:41;99723.66;;;14.91;65.93
63194;BME280;49289;51.670;5.624;2022-09-28T00:57:28;99722.33;;;14.88;66.03
63194;BME280;49289;51.670;5.624;2022-09-28T00:59:16;99721.22;;;15.00;65.69
63194;BME280;49289;51.670;5.624;2022-09-28T01:01:04;99727.88;;;14.56;65.67
63194;BME280;49289;51.670;5.624;2022-09-28T01:02:52;99711.28;;;14.38;66.13
63194;BME280;49289;51.670;5.624;2022-09-28T01:04:41;99712.20;;;14.19;66.35
63194;BME280;49289;51.670;5.624;2022-09-28T01:06:29;99731.00;;;14.63;66.09
63194;BME280;49289;51.670;5.624;2022-09-28T01:08:16;99730.34;;;14.07;67.23
63194;BME280;49289;51.670;5.624;2022-09-28T01:10:05;99722.22;;;14.14;67.31
63194;BME280;49289;51.670;5.624;2022-09-28T01:11:52;99722.14;;;13.98;67.90
63194;BME280;49289;51.670;5.624;2022-09-28T01:13:40;99722.23;;;14.16;67.18
63194;BME280;49289;51.670;5.624;2022-09-28T01:15:28;99721.71;;;14.46;66.37
63194;BME280;49289;51.670;5.624;2022-09-28T01:17:03;99718.24;;;14.46;66.95
63194;BME280;49289;51.670;5.624;2022-09-28T01:18:51;99714.64;;;14.76;66.13
63194;BME280;49289;51.670;5.624;2022-09-28T01:20:57;99714.41;;;14.54;65.95
63194;BME280;49289;51.670;5.624;2022-09-28T01:22:57;99710.45;;;14.64;66.33
63194;BME280;49289;51.670;5.624;2022-09-28T01:24:48;99713.99;;;14.89;65.79
63194;BME280;49289;51.670;5.624;2022-09-28T01:26:54;99714.62;;;14.82;65.68
63194;BME280;49289;51.670;5.624;2022-09-28T01:28:42;99710.55;;;14.96;65.72
63194;BME280;49289;51.670;5.624;2022-09-28T01:30:29;99713.01;;;15.04;65.45
63194;BME280;49289;51.670;5.624;2022-09-28T01:32:21;99713.34;;;14.91;65.11
63194;BME280;49289;51.670;5.624;2022-09-28T01:34:09;99715.34;;;14.68;65.40
63194;BME280;49289;51.670;5.624;2022-09-28T01:35:56;99714.88;;;14.74;65.01
63194;BME280;49289;51.670;5.624;2022-09-28T01:37:45;99717.77;;;14.48;65.99
63194;BME280;49289;51.670;5.624;2022-09-28T01:39:33;99716.19;;;14.47;66.12
63194;BME280;49289;51.670;5.624;2022-09-28T01:41:19;99725.55;;;14.76;65.71
63194;BME280;49289;51.670;5.624;2022-09-28T01:43:07;99727.95;;;14.78;65.21
63194;BME280;49289;51.670;5.624;2022-09-28T01:44:55;99728.25;;;14.73;65.89
63194;BME280;49289;51.670;5.624;2022-09-28T01:46:44;99726.52;;;14.71;65.07
63194;BME280;49289;51.670;5.624;2022-09-28T01:48:32;99722.72;;;14.04;66.47
63194;BME280;49289;51.670;5.624;2022-09-28T01:50:21;99720.28;;;14.26;66.76
63194;BME280;49289;51.670;5.624;2022-09-28T01:52:09;99707.06;;;14.36;66.54
63194;BME280;49289;51.670;5.624;2022-09-28T01:53:59;99719.70;;;14.38;66.47
63194;BME280;49289;51.670;5.624;2022-09-28T01:55:46;99722.84;;;14.21;66.68
63194;BME280;49289;51.670;5.624;2022-09-28T01:57:34;99721.95;;;14.58;65.83
63194;BME280;49289;51.670;5.624;2022-09-28T01:59:21;99718.77;;;14.50;66.01
63194;BME280;49289;51.670;5.624;2022-09-28T02:01:09;99717.41;;;14.57;65.87
63194;BME280;49289;51.670;5.624;2022-09-28T02:02:58;99718.25;;;14.31;66.19
63194;BME280;49289;51.670;5.624;2022-09-28T02:04:44;99717.13;;;14.25;66.10
63194;BME280;49289;51.670;5.624;2022-09-28T02:06:30;99716.56;;;13.75;66.88
63194;BME280;49289;51.670;5.624;2022-09-28T02:08:18;99718.50;;;13.35;67.85
63194;BME280;49289;51.670;5.624;2022-09-28T02:10:05;99714.96;;;13.96;67.17
63194;BME280;49289;51.670;5.624;2022-09-28T02:11:53;99710.68;;;13.88;66.90
63194;BME280;49289;51.670;5.624;2022-09-28T02:13:40;99708.55;;;13.99;66.21
63194;BME280;49289;51.670;5.624;2022-09-28T02:15:29;99709.36;;;14.22;66.53
63194;BME280;49289;51.670;5.624;2022-09-28T02:17:16;99707.78;;;14.42;65.89
63194;BME280;49289;51.670;5.624;2022-09-28T02:19:05;99712.31;;;13.80;65.71
63194;BME280;49289;51.670;5.624;2022-09-28T02:20:55;99709.06;;;13.92;66.74
63194;BME280;49289;51.670;5.624;2022-09-28T02:22:42;99703.54;;;13.76;66.53
63194;BME280;49289;51.670;5.624;2022-09-28T02:24:30;99717.36;;;13.87;67.01
63194;BME280;49289;51.670;5.624;2022-09-28T02:26:16;99714.98;;;14.23;66.52
63194;BME280;49289;51.670;5.624;2022-09-28T02:28:05;99712.78;;;14.43;66.12
63194;BME280;49289;51.670;5.624;2022-09-28T02:29:53;99718.28;;;14.17;66.42
63194;BME280;49289;51.670;5.624;2022-09-28T02:31:41;99710.13;;;14.07;66.50
63194;BME280;49289;51.670;5.624;2022-09-28T02:33:29;99720.43;;;13.61;67.26
63194;BME280;49289;51.670;5.624;2022-09-28T02:35:18;99716.48;;;13.91;67.63
63194;BME280;49289;51.670;5.624;2022-09-28T02:37:06;99724.95;;;14.15;66.86
63194;BME280;49289;51.670;5.624;2022-09-28T02:38:54;99722.94;;;14.11;67.02
63194;BME280;49289;51.670;5.624;2022-09-28T02:40:43;99722.44;;;13.84;67.68
63194;BME280;49289;51.670;5.624;2022-09-28T02:42:32;99710.37;;;14.00;67.23
63194;BME280;49289;51.670;5.624;2022-09-28T02:44:23;99724.83;;;14.21;66.33
63194;BME280;49289;51.670;5.624;2022-09-28T02:46:12;99722.47;;;13.97;67.44
63194;BME280;49289;51.670;5.624;2022-09-28T02:48:07;99716.61;;;14.14;67.02
63194;BME280;49289;51.670;5.624;2022-09-28T02:49:55;99718.62;;;14.06;66.81
63194;BME280;49289;51.670;5.624;2022-09-28T02:51:43;99717.08;;;13.54;68.58
63194;BME280;49289;51.670;5.624;2022-09-28T02:54:03;99720.72;;;13.35;69.22
63194;BME280;49289;51.670;5.624;2022-09-28T02:55:54;99717.23;;;13.46;68.68
63194;BME280;49289;51.670;5.624;2022-09-28T02:57:44;99717.36;;;13.97;68.17
63194;BME280;49289;51.670;5.624;2022-09-28T02:59:36;99723.72;;;13.15;69.78
63194;BME280;49289;51.670;5.624;2022-09-28T03:01:24;99724.58;;;13.26;69.87
63194;BME280;49289;51.670;5.624;2022-09-28T03:03:11;99714.51;;;13.08;70.17
63194;BME280;49289;51.670;5.624;2022-09-28T03:05:05;99721.73;;;12.89;70.79
63194;BME280;49289;51.670;5.624;2022-09-28T03:06:52;99721.67;;;13.76;68.59
63194;BME280;49289;51.670;5.624;2022-09-28T03:08:41;99717.25;;;13.84;68.00
63194;BME280;49289;51.670;5.624;2022-09-28T03:10:29;99718.97;;;13.77;67.73
63194;BME280;49289;51.670;5.624;2022-09-28T03:12:17;99717.16;;;13.55;68.14
63194;BME280;49289;51.670;5.624;2022-09-28T03:14:05;99702.20;;;13.42;68.27
63194;BME280;49289;51.670;5.624;2022-09-28T03:16:04;99715.89;;;13.74;68.34
63194;BME280;49289;51.670;5.624;2022-09-28T03:17:41;99716.12;;;13.89;67.02
63194;BME280;49289;51.670;5.624;2022-09-28T03:19:29;99697.96;;;14.02;66.90
63194;BME280;49289;51.670;5.624;2022-09-28T03:21:17;99713.32;;;13.72;67.08
63194;BME280;49289;51.670;5.624;2022-09-28T03:23:05;99716.27;;;13.95;67.20
63194;BME280;49289;51.670;5.624;2022-09-28T03:24:52;99721.55;;;14.13;66.97
63194;BME280;49289;51.670;5.624;2022-09-28T03:26:40;99721.17;;;13.99;66.80
63194;BME280;49289;51.670;5.624;2022-09-28T03:28:28;99720.99;;;14.15;66.75
63194;BME280;49289;51.670;5.624;2022-09-28T03:30:16;99721.67;;;14.19;65.82
63194;BME280;49289;51.670;5.624;2022-09-28T03:32:04;99722.28;;;14.30;66.05
63194;BME280;49289;51.670;5.624;2022-09-28T03:33:52;99709.82;;;13.93;66.57
63194;BME280;49289;51.670;5.624;2022-09-28T03:35:40;99725.59;;;14.46;65.98
63194;BME280;49289;51.670;5.624;2022-09-28T03:37:28;99721.34;;;13.76;66.94
63194;BME280;49289;51.670;5.624;2022-09-28T03:39:16;99723.97;;;13.90;67.41
63194;BME280;49289;51.670;5.624;2022-09-28T03:41:04;99720.97;;;13.95;66.89
63194;BME280;49289;51.670;5.624;2022-09-28T03:42:51;99723.41;;;13.91;66.61
63194;BME280;49289;51.670;5.624;2022-09-28T03:44:38;99726.53;;;13.08;68.98
63194;BME280;49289;51.670;5.624;2022-09-28T03:46:25;99721.86;;;13.54;68.63
63194;BME280;49289;51.670;5.624;2022-09-28T03:48:12;99719.81;;;13.70;67.77
63194;BME280;49289;51.670;5.624;2022-09-28T03:49:59;99724.69;;;13.58;67.83
63194;BME280;49289;51.670;5.624;2022-09-28T03:51:46;99722.17;;;13.53;68.20
63194;BME280;49289;51.670;5.624;2022-09-28T03:53:33;99724.84;;;13.48;68.38
63194;BME280;49289;51.670;5.624;2022-09-28T03:55:20;99728.36;;;13.67;67.66
63194;BME280;49289;51.670;5.624;2022-09-28T03:57:08;99726.36;;;13.51;67.97
63194;BME280;49289;51.670;5.624;2022-09-28T03:58:56;99727.28;;;14.01;67.13
63194;BME280;49289;51.670;5.624;2022-09-28T04:00:45;99710.87;;;14.00;66.92
63194;BME280;49289;51.670;5.624;2022-09-28T04:02:33;99710.19;;;13.98;67.00
63194;BME280;49289;51.670;5.624;2022-09-28T04:04:21;99728.88;;;13.94;66.59
63194;BME280;49289;51.670;5.624;2022-09-28T04:06:09;99733.90;;;13.48;68.03
63194;BME280;49289;51.670;5.624;2022-09-28T04:07:58;99730.71;;;13.50;67.75
63194;BME280;49289;51.670;5.624;2022-09-28T04:09:45;99731.67;;;13.78;67.29
63194;BME280;49289;51.670;5.624;2022-09-28T04:11:32;99733.92;;;14.02;66.69
63194;BME280;49289;51.670;5.624;2022-09-28T04:13:19;99729.55;;;14.02;66.99
63194;BME280;49289;51.670;5.624;2022-09-28T04:15:06;99727.42;;;13.51;67.68
63194;BME280;49289;51.670;5.624;2022-09-28T04:16:53;99723.39;;;13.31;69.01
63194;BME280;49289;51.670;5.624;2022-09-28T04:18:40;99721.63;;;13.56;67.80
63194;BME280;49289;51.670;5.624;2022-09-28T04:20:27;99720.58;;;13.50;67.78
63194;BME280;49289;51.670;5.624;2022-09-28T04:22:14;99723.66;;;13.82;67.54
63194;BME280;49289;51.670;5.624;2022-09-28T04:24:01;99721.70;;;14.11;66.42
63194;BME280;49289;51.670;5.624;2022-09-28T04:25:49;99721.88;;;13.95;66.60
63194;BME280;49289;51.670;5.624;2022-09-28T04:27:35;99718.37;;;13.52;67.67
63194;BME280;49289;51.670;5.624;2022-09-28T04:29:22;99717.80;;;13.82;67.38
63194;BME280;49289;51.670;5.624;2022-09-28T04:31:13;99722.04;;;12.93;69.07
63194;BME280;49289;51.670;5.624;2022-09-28T04:32:59;99719.52;;;13.39;68.29
63194;BME280;49289;51.670;5.624;2022-09-28T04:34:46;99703.64;;;13.33;67.93
63194;BME280;49289;51.670;5.624;2022-09-28T04:36:35;99719.08;;;13.95;67.05
63194;BME280;49289;51.670;5.624;2022-09-28T04:38:23;99714.27;;;14.10;66.42
63194;BME280;49289;51.670;5.624;2022-09-28T04:40:11;99719.73;;;13.84;66.28
63194;BME280;49289;51.670;5.624;2022-09-28T04:41:59;99720.94;;;14.07;66.48
63194;BME280;49289;51.670;5.624;2022-09-28T04:43:46;99723.27;;;13.47;67.96
63194;BME280;49289;51.670;5.624;2022-09-28T04:45:34;99718.52;;;13.64;67.01
63194;BME280;49289;51.670;5.624;2022-09-28T04:47:22;99724.27;;;13.57;67.45
63194;BME280;49289;51.670;5.624;2022-09-28T04:49:10;99701.70;;;13.89;66.57
63194;BME280;49289;51.670;5.624;2022-09-28T04:51:04;99717.22;;;14.00;66.02
63194;BME280;49289;51.670;5.624;2022-09-28T04:52:51;99719.66;;;14.13;65.96
63194;BME280;49289;51.670;5.624;2022-09-28T04:54:38;99719.87;;;14.21;65.81
63194;BME280;49289;51.670;5.624;2022-09-28T04:56:25;99721.92;;;13.91;66.38
63194;BME280;49289;51.670;5.624;2022-09-28T04:58:12;99721.99;;;13.74;66.89
63194;BME280;49289;51.670;5.624;2022-09-28T04:59:59;99728.20;;;13.54;67.14
63194;BME280;49289;51.670;5.624;2022-09-28T05:01:46;99730.21;;;13.63;67.02
63194;BME280;49289;51.670;5.624;2022-09-28T05:03:33;99734.64;;;13.01;68.51
63194;BME280;49289;51.670;5.624;2022-09-28T05:05:21;99720.03;;;12.98;68.66
63194;BME280;49289;51.670;5.624;2022-09-28T05:07:09;99737.11;;;12.71;69.54
63194;BME280;49289;51.670;5.624;2022-09-28T05:08:42;99742.81;;;12.73;70.17
63194;BME280;49289;51.670;5.624;2022-09-28T05:10:30;99723.61;;;12.77;69.83
63194;BME280;49289;51.670;5.624;2022-09-28T05:12:17;99744.27;;;13.46;68.24
63194;BME280;49289;51.670;5.624;2022-09-28T05:14:04;99722.86;;;13.27;67.75
63194;BME280;49289;51.670;5.624;2022-09-28T05:15:51;99742.26;;;12.84;69.40
63194;BME280;49289;51.670;5.624;2022-09-28T05:17:39;99723.81;;;12.84;69.23
63194;BME280;49289;51.670;5.624;2022-09-28T05:19:27;99742.31;;;13.70;67.49
63194;BME280;49289;51.670;5.624;2022-09-28T05:21:15;99746.81;;;13.45;67.86
63194;BME280;49289;51.670;5.624;2022-09-28T05:23:02;99743.64;;;13.57;67.51
63194;BME280;49289;51.670;5.624;2022-09-28T05:24:49;99748.05;;;13.52;67.38
63194;BME280;49289;51.670;5.624;2022-09-28T05:26:37;99746.64;;;12.60;70.18
63194;BME280;49289;51.670;5.624;2022-09-28T05:28:27;99740.33;;;12.66;70.00
63194;BME280;49289;51.670;5.624;2022-09-28T05:30:15;99729.28;;;12.93;69.07
63194;BME280;49289;51.670;5.624;2022-09-28T05:32:02;99740.68;;;12.96;69.08
63194;BME280;49289;51.670;5.624;2022-09-28T05:33:49;99745.53;;;12.67;70.05
63194;BME280;49289;51.670;5.624;2022-09-28T05:35:37;99741.60;;;13.19;68.81
63194;BME280;49289;51.670;5.624;2022-09-28T05:37:25;99734.13;;;12.76;69.75
63194;BME280;49289;51.670;5.624;2022-09-28T05:39:14;99737.01;;;12.99;69.09
63194;BME280;49289;51.670;5.624;2022-09-28T05:41:01;99726.45;;;12.98;68.67
63194;BME280;49289;51.670;5.624;2022-09-28T05:42:49;99744.80;;;13.29;68.23
63194;BME280;49289;51.670;5.624;2022-09-28T05:44:37;99746.56;;;12.92;68.80
63194;BME280;49289;51.670;5.624;2022-09-28T05:46:26;99747.38;;;13.20;68.57
63194;BME280;49289;51.670;5.624;2022-09-28T05:48:14;99746.81;;;13.40;67.45
63194;BME280;49289;51.670;5.624;2022-09-28T05:50:02;99730.31;;;13.08;68.21
63194;BME280;49289;51.670;5.624;2022-09-28T05:51:50;99747.86;;;13.43;67.76
63194;BME280;49289;51.670;5.624;2022-09-28T05:53:38;99737.75;;;13.10;68.31
63194;BME280;49289;51.670;5.624;2022-09-28T05:55:26;99754.97;;;13.66;67.35
63194;BME280;49289;51.670;5.624;2022-09-28T05:57:14;99757.00;;;13.42;67.19
63194;BME280;49289;51.670;5.624;2022-09-28T05:59:02;99751.89;;;13.63;67.32
63194;BME280;49289;51.670;5.624;2022-09-28T06:00:52;99756.87;;;13.61;66.74
63194;BME280;49289;51.670;5.624;2022-09-28T06:02:38;99757.04;;;14.05;66.58
63194;BME280;49289;51.670;5.624;2022-09-28T06:04:26;99751.19;;;14.05;66.36
63194;BME280;49289;51.670;5.624;2022-09-28T06:06:13;99761.38;;;14.10;66.52
63194;BME280;49289;51.670;5.624;2022-09-28T06:08:01;99761.01;;;14.00;66.26
63194;BME280;49289;51.670;5.624;2022-09-28T06:09:49;99761.09;;;13.77;67.12
63194;BME280;49289;51.670;5.624;2022-09-28T06:11:37;99759.57;;;13.73;67.09
63194;BME280;49289;51.670;5.624;2022-09-28T06:13:25;99764.67;;;13.31;68.15
63194;BME280;49289;51.670;5.624;2022-09-28T06:15:13;99763.35;;;13.15;68.37
63194;BME280;49289;51.670;5.624;2022-09-28T06:16:43;99766.13;;;13.83;67.42
63194;BME280;49289;51.670;5.624;2022-09-28T06:18:31;99768.12;;;14.18;66.47
63194;BME280;49289;51.670;5.624;2022-09-28T06:20:20;99768.66;;;13.98;66.20
63194;BME280;49289;51.670;5.624;2022-09-28T06:22:07;99765.33;;;13.15;68.57
63194;BME280;49289;51.670;5.624;2022-09-28T06:23:54;99772.87;;;13.55;68.09
63194;BME280;49289;51.670;5.624;2022-09-28T06:25:41;99771.87;;;13.89;67.43
63194;BME280;49289;51.670;5.624;2022-09-28T06:27:28;99777.34;;;13.62;67.94
63194;BME280;49289;51.670;5.624;2022-09-28T06:29:15;99774.88;;;13.62;67.35
63194;BME280;49289;51.670;5.624;2022-09-28T06:31:03;99770.17;;;13.83;67.71
63194;BME280;49289;51.670;5.624;2022-09-28T06:32:51;99775.92;;;13.76;66.81
63194;BME280;49289;51.670;5.624;2022-09-28T06:34:40;99783.62;;;13.62;67.20
63194;BME280;49289;51.670;5.624;2022-09-28T06:36:27;99784.03;;;13.83;67.32
63194;BME280;49289;51.670;5.624;2022-09-28T06:38:14;99783.75;;;13.98;66.76
63194;BME280;49289;51.670;5.624;2022-09-28T06:40:01;99786.16;;;14.04;66.73
63194;BME280;49289;51.670;5.624;2022-09-28T06:41:48;99785.63;;;14.36;65.77
63194;BME280;49289;51.670;5.624;2022-09-28T06:43:35;99792.30;;;14.59;65.27
63194;BME280;49289;51.670;5.624;2022-09-28T06:45:24;99768.55;;;14.26;65.43
63194;BME280;49289;51.670;5.624;2022-09-28T06:46:55;99787.85;;;14.50;65.27
63194;BME280;49289;51.670;5.624;2022-09-28T06:48:43;99790.25;;;14.51;64.74
63194;BME280;49289;51.670;5.624;2022-09-28T06:50:33;99790.25;;;14.50;65.25
63194;BME280;49289;51.670;5.624;2022-09-28T06:52:19;99797.45;;;14.39;65.22
63194;BME280;49289;51.670;5.624;2022-09-28T06:54:08;99792.41;;;14.51;64.90
63194;BME280;49289;51.670;5.624;2022-09-28T06:55:56;99793.67;;;14.64;64.34
63194;BME280;49289;51.670;5.624;2022-09-28T06:57:44;99794.09;;;14.77;64.67
63194;BME280;49289;51.670;5.624;2022-09-28T06:59:32;99795.89;;;14.83;64.16
63194;BME280;49289;51.670;5.624;2022-09-28T07:01:20;99794.98;;;14.84;64.45
63194;BME280;49289;51.670;5.624;2022-09-28T07:03:10;99790.63;;;14.78;64.30
63194;BME280;49289;51.670;5.624;2022-09-28T07:04:56;99789.83;;;14.50;65.26
63194;BME280;49289;51.670;5.624;2022-09-28T07:06:44;99792.34;;;14.55;64.66
63194;BME280;49289;51.670;5.624;2022-09-28T07:08:31;99792.81;;;14.37;65.28
63194;BME280;49289;51.670;5.624;2022-09-28T07:10:19;99797.38;;;14.44;65.11
63194;BME280;49289;51.670;5.624;2022-09-28T07:11:52;99791.77;;;14.44;65.42
63194;BME280;49289;51.670;5.624;2022-09-28T07:13:40;99807.67;;;14.21;65.88
63194;BME280;49289;51.670;5.624;2022-09-28T07:15:28;99810.38;;;14.20;66.08
63194;BME280;49289;51.670;5.624;2022-09-28T07:17:16;99812.16;;;13.84;67.40
63194;BME280;49289;51.670;5.624;2022-09-28T07:19:05;99818.73;;;13.82;67.34
63194;BME280;49289;51.670;5.624;2022-09-28T07:20:53;99811.11;;;13.95;67.28
63194;BME280;49289;51.670;5.624;2022-09-28T07:22:41;99812.95;;;13.90;67.22
63194;BME280;49289;51.670;5.624;2022-09-28T07:24:29;99797.56;;;13.39;68.32
63194;BME280;49289;51.670;5.624;2022-09-28T07:26:17;99819.54;;;13.89;67.89
63194;BME280;49289;51.670;5.624;2022-09-28T07:28:06;99824.28;;;13.93;67.66
63194;BME280;49289;51.670;5.624;2022-09-28T07:29:53;99823.01;;;14.03;66.92
63194;BME280;49289;51.670;5.624;2022-09-28T07:31:40;99826.13;;;13.87;68.05
63194;BME280;49289;51.670;5.624;2022-09-28T07:33:27;99826.78;;;14.19;67.32
63194;BME280;49289;51.670;5.624;2022-09-28T07:35:14;99830.64;;;14.41;67.24
63194;BME280;49289;51.670;5.624;2022-09-28T07:37:01;99831.10;;;14.60;66.60
63194;BME280;49289;51.670;5.624;2022-09-28T07:38:48;99824.83;;;14.43;66.32
63194;BME280;49289;51.670;5.624;2022-09-28T07:40:35;99830.08;;;14.62;66.49
63194;BME280;49289;51.670;5.624;2022-09-28T07:42:22;99832.82;;;13.97;67.24
63194;BME280;49289;51.670;5.624;2022-09-28T07:44:10;99821.77;;;13.89;68.06
63194;BME280;49289;51.670;5.624;2022-09-28T07:45:58;99833.45;;;13.86;67.79
63194;BME280;49289;51.670;5.624;2022-09-28T07:47:46;99832.93;;;14.14;67.97
63194;BME280;49289;51.670;5.624;2022-09-28T07:49:34;99836.23;;;14.51;67.26
63194;BME280;49289;51.670;5.624;2022-09-28T07:51:21;99835.67;;;14.54;66.33
63194;BME280;49289;51.670;5.624;2022-09-28T07:53:08;99838.12;;;14.60;66.22
63194;BME280;49289;51.670;5.624;2022-09-28T07:54:56;99841.77;;;14.06;67.49
63194;BME280;49289;51.670;5.624;2022-09-28T07:56:28;99841.15;;;13.97;67.93
63194;BME280;49289;51.670;5.624;2022-09-28T07:58:15;99842.17;;;14.38;67.31
63194;BME280;49289;51.670;5.624;2022-09-28T08:00:02;99842.77;;;15.14;65.36
63194;BME280;49289;51.670;5.624;2022-09-28T08:01:49;99843.50;;;15.11;65.25
63194;BME280;49289;51.670;5.624;2022-09-28T08:03:37;99845.14;;;14.68;66.48
63194;BME280;49289;51.670;5.624;2022-09-28T08:05:23;99841.99;;;14.66;65.99
63194;BME280;49289;51.670;5.624;2022-09-28T08:07:13;99846.28;;;14.59;66.82
63194;BME280;49289;51.670;5.624;2022-09-28T08:09:01;99846.56;;;14.22;67.06
63194;BME280;49289;51.670;5.624;2022-09-28T08:10:48;99849.88;;;14.17;67.92
63194;BME280;49289;51.670;5.624;2022-09-28T08:12:35;99849.97;;;14.45;67.44
63194;BME280;49289;51.670;5.624;2022-09-28T08:14:22;99847.45;;;15.00;65.98
63194;BME280;49289;51.670;5.624;2022-09-28T08:16:11;99840.93;;;14.87;65.61
63194;BME280;49289;51.670;5.624;2022-09-28T08:17:59;99841.07;;;14.58;66.54
63194;BME280;49289;51.670;5.624;2022-09-28T08:19:47;99850.82;;;15.05;66.15
63194;BME280;49289;51.670;5.624;2022-09-28T08:21:34;99859.23;;;14.48;67.01
63194;BME280;49289;51.670;5.624;2022-09-28T08:23:21;99861.09;;;14.80;66.39
63194;BME280;49289;51.670;5.624;2022-09-28T08:25:08;99859.47;;;14.63;66.97
63194;BME280;49289;51.670;5.624;2022-09-28T08:26:56;99857.91;;;15.02;66.35
63194;BME280;49289;51.670;5.624;2022-09-28T08:28:45;99853.28;;;15.55;65.60
63194;BME280;49289;51.670;5.624;2022-09-28T08:30:32;99860.86;;;15.22;66.13
63194;BME280;49289;51.670;5.624;2022-09-28T08:32:20;99861.39;;;15.28;65.83
63194;BME280;49289;51.670;5.624;2022-09-28T08:34:09;99847.58;;;15.28;65.59
63194;BME280;49289;51.670;5.624;2022-09-28T08:36:00;99860.08;;;14.50;67.36
63194;BME280;49289;51.670;5.624;2022-09-28T08:37:46;99862.00;;;15.45;65.70
63194;BME280;49289;51.670;5.624;2022-09-28T08:39:33;99866.35;;;16.22;64.13
63194;BME280;49289;51.670;5.624;2022-09-28T08:41:23;99864.33;;;15.38;65.10
63194;BME280;49289;51.670;5.624;2022-09-28T08:43:13;99864.47;;;15.21;65.62
63194;BME280;49289;51.670;5.624;2022-09-28T08:45:04;99856.39;;;15.22;65.77
63194;BME280;49289;51.670;5.624;2022-09-28T08:46:50;99855.46;;;15.70;64.82
63194;BME280;49289;51.670;5.624;2022-09-28T08:48:41;99864.51;;;15.52;65.03
63194;BME280;49289;51.670;5.624;2022-09-28T08:50:27;99872.30;;;15.06;65.62
63194;BME280;49289;51.670;5.624;2022-09-28T08:52:16;99857.14;;;15.80;64.60
63194;BME280;49289;51.670;5.624;2022-09-28T08:54:05;99864.46;;;16.35;63.48
63194;BME280;49289;51.670;5.624;2022-09-28T08:55:52;99874.59;;;15.98;63.74
63194;BME280;49289;51.670;5.624;2022-09-28T08:57:42;99883.28;;;16.20;63.51
63194;BME280;49289;51.670;5.624;2022-09-28T08:59:28;99882.95;;;16.17;63.70
63194;BME280;49289;51.670;5.624;2022-09-28T09:01:16;99878.20;;;16.65;62.19
63194;BME280;49289;51.670;5.624;2022-09-28T09:03:03;99875.59;;;16.50;63.31
63194;BME280;49289;51.670;5.624;2022-09-28T09:04:50;99886.23;;;16.40;62.62
63194;BME280;49289;51.670;5.624;2022-09-28T09:06:27;99893.80;;;15.58;64.67
63194;BME280;49289;51.670;5.624;2022-09-28T09:08:22;99891.38;;;15.26;65.51
63194;BME280;49289;51.670;5.624;2022-09-28T09:10:12;99891.45;;;16.11;64.45
63194;BME280;49289;51.670;5.624;2022-09-28T09:12:02;99892.13;;;16.11;62.61
63194;BME280;49289;51.670;5.624;2022-09-28T09:14:10;99887.56;;;15.88;63.48
63194;BME280;49289;51.670;5.624;2022-09-28T09:15:47;99891.86;;;16.35;63.52
63194;BME280;49289;51.670;5.624;2022-09-28T09:17:37;99884.38;;;16.92;62.83
63194;BME280;49289;51.670;5.624;2022-09-28T09:19:29;99883.80;;;16.91;61.24
63194;BME280;49289;51.670;5.624;2022-09-28T09:21:15;99896.48;;;16.25;61.72
63194;BME280;49289;51.670;5.624;2022-09-28T09:23:11;99888.44;;;16.55;62.78
63194;BME280;49289;51.670;5.624;2022-09-28T09:25:01;99861.74;;;16.72;60.94
63194;BME280;49289;51.670;5.624;2022-09-28T09:26:46;99891.41;;;16.56;61.42
63194;BME280;49289;51.670;5.624;2022-09-28T09:30:55;99904.71;;;15.80;63.23
63194;BME280;49289;51.670;5.624;2022-09-28T09:32:37;99891.42;;;15.43;63.79
63194;BME280;49289;51.670;5.624;2022-09-28T09:34:43;99906.09;;;16.31;62.40